sensor_id;sensor_type;location;lat;lon;timestamp;temperature;humidity
3713;DHT22;1872;51.406;6.856;2023-04-03T00:00:16;2.40;99.90
3713;DHT22;1872;51.406;6.856;2023-04-03T00:02:41;2.30;99.90
3713;DHT22;1872;51.406;6.856;2023-04-03T00:05:09;2.30;99.90
3713;DHT22;1872;51.406;6.856;2023-04-03T00:07:35;2.30;99.90
3713;DHT22;1872;51.406;6.856;2023-04-03T00:10:01;2.20;99.90
3713;DHT22;1872;51.406;6.856;2023-04-03T00:12:26;2.20;99.90
3713;DHT22;1872;51.406;6.856;2023-04-03T00:14:52;2.20;99.90
3713;DHT22;1872;51.406;6.856;2023-04-03T00:17:18;2.20;99.90
3713;DHT22;1872;51.406;6.856;2023-04-03T00:19:43;2.20;99.90
3713;DHT22;1872;51.406;6.856;2023-04-03T00:22:09;2.20;99.90
3713;DHT22;1872;51.406;6.856;2023-04-03T00:24:37;2.20;99.90
3713;DHT22;1872;51.406;6.856;2023-04-03T00:27:02;2.20;99.90
3713;DHT22;1872;51.406;6.856;2023-04-03T00:29:28;2.10;99.90
3713;DHT22;1872;51.406;6.856;2023-04-03T00:31:56;2.10;99.90
3713;DHT22;1872;51.406;6.856;2023-04-03T00:34:22;2.10;99.90
3713;DHT22;1872;51.406;6.856;2023-04-03T00:36:47;2.10;99.90
3713;DHT22;1872;51.406;6.856;2023-04-03T00:39:13;2.10;99.90
3713;DHT22;1872;51.406;6.856;2023-04-03T00:41:39;2.10;99.90
3713;DHT22;1872;51.406;6.856;2023-04-03T00:44:23;2.10;99.90
3713;DHT22;1872;51.406;6.856;2023-04-03T00:47:09;2.00;99.90
3713;DHT22;1872;51.406;6.856;2023-04-03T00:49:37;2.00;99.90
3713;DHT22;1872;51.406;6.856;2023-04-03T00:52:05;2.00;99.90
3713;DHT22;1872;51.406;6.856;2023-04-03T00:54:35;1.90;99.90
3713;DHT22;1872;51.406;6.856;2023-04-03T00:57:01;1.90;99.90
3713;DHT22;1872;51.406;6.856;2023-04-03T00:59:40;1.90;99.90
3713;DHT22;1872;51.406;6.856;2023-04-03T01:02:10;1.90;99.90
3713;DHT22;1872;51.406;6.856;2023-04-03T01:04:43;1.90;99.90
3713;DHT22;1872;51.406;6.856;2023-04-03T01:07:18;1.80;99.90
3713;DHT22;1872;51.406;6.856;2023-04-03T01:09:48;1.80;99.90
3713;DHT22;1872;51.406;6.856;2023-04-03T01:12:27;1.80;99.90
3713;DHT22;1872;51.406;6.856;2023-04-03T01:15:07;1.80;99.90
3713;DHT22;1872;51.406;6.856;2023-04-03T01:17:39;1.80;99.90
3713;DHT22;1872;51.406;6.856;2023-04-03T01:25:51;1.70;99.90
3713;DHT22;1872;51.406;6.856;2023-04-03T01:28:23;1.70;99.90
3713;DHT22;1872;51.406;6.856;2023-04-03T01:30:56;1.70;99.90
3713;DHT22;1872;51.406;6.856;2023-04-03T01:33:23;1.70;99.90
3713;DHT22;1872;51.406;6.856;2023-04-03T01:35:49;1.80;99.90
3713;DHT22;1872;51.406;6.856;2023-04-03T01:38:15;1.80;99.90
3713;DHT22;1872;51.406;6.856;2023-04-03T01:40:41;1.80;99.90
3713;DHT22;1872;51.406;6.856;2023-04-03T01:43:07;1.80;99.90
3713;DHT22;1872;51.406;6.856;2023-04-03T01:45:35;1.80;99.90
3713;DHT22;1872;51.406;6.856;2023-04-03T01:48:03;1.80;99.90
3713;DHT22;1872;51.406;6.856;2023-04-03T01:50:30;1.80;99.90
3713;DHT22;1872;51.406;6.856;2023-04-03T01:52:58;1.70;99.90
3713;DHT22;1872;51.406;6.856;2023-04-03T01:55:23;1.70;99.90
3713;DHT22;1872;51.406;6.856;2023-04-03T01:57:51;1.70;99.90
3713;DHT22;1872;51.406;6.856;2023-04-03T02:00:19;1.70;99.90
3713;DHT22;1872;51.406;6.856;2023-04-03T02:02:45;1.70;99.90
3713;DHT22;1872;51.406;6.856;2023-04-03T02:05:12;1.70;99.90
3713;DHT22;1872;51.406;6.856;2023-04-03T02:07:45;1.70;99.90
3713;DHT22;1872;51.406;6.856;2023-04-03T02:10:11;1.70;99.90
3713;DHT22;1872;51.406;6.856;2023-04-03T02:12:41;1.70;99.90
3713;DHT22;1872;51.406;6.856;2023-04-03T02:15:07;1.70;99.90
3713;DHT22;1872;51.406;6.856;2023-04-03T02:17:32;1.70;99.90
3713;DHT22;1872;51.406;6.856;2023-04-03T02:19:58;1.70;99.90
3713;DHT22;1872;51.406;6.856;2023-04-03T02:22:24;1.70;99.90
3713;DHT22;1872;51.406;6.856;2023-04-03T02:24:49;1.70;99.90
3713;DHT22;1872;51.406;6.856;2023-04-03T02:27:15;1.70;99.90
3713;DHT22;1872;51.406;6.856;2023-04-03T02:29:41;1.70;99.90
3713;DHT22;1872;51.406;6.856;2023-04-03T02:32:08;1.70;99.90
3713;DHT22;1872;51.406;6.856;2023-04-03T02:34:34;1.80;99.90
3713;DHT22;1872;51.406;6.856;2023-04-03T02:37:00;1.80;99.90
3713;DHT22;1872;51.406;6.856;2023-04-03T02:39:26;1.80;99.90
3713;DHT22;1872;51.406;6.856;2023-04-03T02:41:52;1.80;99.90
3713;DHT22;1872;51.406;6.856;2023-04-03T02:44:18;1.70;99.90
3713;DHT22;1872;51.406;6.856;2023-04-03T02:46:44;1.70;99.90
3713;DHT22;1872;51.406;6.856;2023-04-03T02:49:10;1.70;99.90
3713;DHT22;1872;51.406;6.856;2023-04-03T02:51:37;1.70;99.90
3713;DHT22;1872;51.406;6.856;2023-04-03T02:54:03;1.70;99.90
3713;DHT22;1872;51.406;6.856;2023-04-03T02:56:29;1.60;99.90
3713;DHT22;1872;51.406;6.856;2023-04-03T02:58:55;1.60;99.90
3713;DHT22;1872;51.406;6.856;2023-04-03T03:01:20;1.60;99.90
3713;DHT22;1872;51.406;6.856;2023-04-03T03:03:46;1.50;99.90
3713;DHT22;1872;51.406;6.856;2023-04-03T03:06:16;1.60;99.90
3713;DHT22;1872;51.406;6.856;2023-04-03T03:08:42;1.60;99.90
3713;DHT22;1872;51.406;6.856;2023-04-03T03:11:08;1.60;99.90
3713;DHT22;1872;51.406;6.856;2023-04-03T03:13:35;1.60;99.90
3713;DHT22;1872;51.406;6.856;2023-04-03T03:16:01;1.60;99.90
3713;DHT22;1872;51.406;6.856;2023-04-03T03:18:27;1.60;99.90
3713;DHT22;1872;51.406;6.856;2023-04-03T03:20:54;1.60;99.90
3713;DHT22;1872;51.406;6.856;2023-04-03T03:23:22;1.50;99.90
3713;DHT22;1872;51.406;6.856;2023-04-03T03:25:48;1.50;99.90
3713;DHT22;1872;51.406;6.856;2023-04-03T03:28:14;1.50;99.90
3713;DHT22;1872;51.406;6.856;2023-04-03T03:30:40;1.50;99.90
3713;DHT22;1872;51.406;6.856;2023-04-03T03:33:08;1.50;99.90
3713;DHT22;1872;51.406;6.856;2023-04-03T03:35:33;1.40;99.90
3713;DHT22;1872;51.406;6.856;2023-04-03T03:37:59;1.50;99.90
3713;DHT22;1872;51.406;6.856;2023-04-03T03:40:27;1.50;99.90
3713;DHT22;1872;51.406;6.856;2023-04-03T03:42:53;1.50;99.90
3713;DHT22;1872;51.406;6.856;2023-04-03T03:45:19;1.50;99.90
3713;DHT22;1872;51.406;6.856;2023-04-03T03:47:44;1.60;99.90
3713;DHT22;1872;51.406;6.856;2023-04-03T03:50:13;1.60;99.90
3713;DHT22;1872;51.406;6.856;2023-04-03T03:52:39;1.70;99.90
3713;DHT22;1872;51.406;6.856;2023-04-03T03:55:04;1.70;99.90
3713;DHT22;1872;51.406;6.856;2023-04-03T03:57:31;1.70;99.90
3713;DHT22;1872;51.406;6.856;2023-04-03T03:59:56;1.70;99.90
3713;DHT22;1872;51.406;6.856;2023-04-03T04:02:22;1.70;99.90
3713;DHT22;1872;51.406;6.856;2023-04-03T04:04:51;1.80;99.90
3713;DHT22;1872;51.406;6.856;2023-04-03T04:07:17;1.80;99.90
3713;DHT22;1872;51.406;6.856;2023-04-03T04:09:42;1.80;99.90
3713;DHT22;1872;51.406;6.856;2023-04-03T04:12:10;1.80;99.90
3713;DHT22;1872;51.406;6.856;2023-04-03T04:14:38;1.80;99.90
3713;DHT22;1872;51.406;6.856;2023-04-03T04:17:04;1.80;99.90
3713;DHT22;1872;51.406;6.856;2023-04-03T04:19:30;1.90;99.90
3713;DHT22;1872;51.406;6.856;2023-04-03T04:21:56;1.90;99.90
3713;DHT22;1872;51.406;6.856;2023-04-03T04:24:21;1.90;99.90
3713;DHT22;1872;51.406;6.856;2023-04-03T04:26:48;1.90;99.90
3713;DHT22;1872;51.406;6.856;2023-04-03T04:29:14;1.90;99.90
3713;DHT22;1872;51.406;6.856;2023-04-03T04:31:42;2.00;99.90
3713;DHT22;1872;51.406;6.856;2023-04-03T04:34:07;2.00;99.90
3713;DHT22;1872;51.406;6.856;2023-04-03T04:36:33;2.00;99.90
3713;DHT22;1872;51.406;6.856;2023-04-03T04:38:59;2.00;99.90
3713;DHT22;1872;51.406;6.856;2023-04-03T04:41:25;2.00;99.90
3713;DHT22;1872;51.406;6.856;2023-04-03T04:43:52;2.00;99.90
3713;DHT22;1872;51.406;6.856;2023-04-03T04:46:18;2.10;99.90
3713;DHT22;1872;51.406;6.856;2023-04-03T04:48:44;2.10;99.90
3713;DHT22;1872;51.406;6.856;2023-04-03T04:51:10;2.10;99.90
3713;DHT22;1872;51.406;6.856;2023-04-03T04:53:37;2.10;99.90
3713;DHT22;1872;51.406;6.856;2023-04-03T04:56:03;2.10;99.90
3713;DHT22;1872;51.406;6.856;2023-04-03T04:58:28;2.10;99.90
3713;DHT22;1872;51.406;6.856;2023-04-03T05:01:05;2.10;99.90
3713;DHT22;1872;51.406;6.856;2023-04-03T05:03:32;2.00;99.90
3713;DHT22;1872;51.406;6.856;2023-04-03T05:05:58;2.00;99.90
3713;DHT22;1872;51.406;6.856;2023-04-03T05:08:25;2.00;99.90
3713;DHT22;1872;51.406;6.856;2023-04-03T05:10:51;2.00;99.90
3713;DHT22;1872;51.406;6.856;2023-04-03T05:13:17;1.90;99.90
3713;DHT22;1872;51.406;6.856;2023-04-03T05:15:43;1.90;99.90
3713;DHT22;1872;51.406;6.856;2023-04-03T05:18:08;1.90;99.90
3713;DHT22;1872;51.406;6.856;2023-04-03T05:20:36;1.90;99.90
3713;DHT22;1872;51.406;6.856;2023-04-03T05:23:02;1.90;99.90
3713;DHT22;1872;51.406;6.856;2023-04-03T05:25:28;1.90;99.90
3713;DHT22;1872;51.406;6.856;2023-04-03T05:27:56;1.90;99.90
3713;DHT22;1872;51.406;6.856;2023-04-03T05:30:22;1.80;99.90
3713;DHT22;1872;51.406;6.856;2023-04-03T05:32:48;1.90;99.90
3713;DHT22;1872;51.406;6.856;2023-04-03T05:35:13;1.90;99.90
3713;DHT22;1872;51.406;6.856;2023-04-03T05:37:46;1.90;99.90
3713;DHT22;1872;51.406;6.856;2023-04-03T05:40:12;1.90;99.90
3713;DHT22;1872;51.406;6.856;2023-04-03T05:42:38;1.90;99.90
3713;DHT22;1872;51.406;6.856;2023-04-03T05:45:04;1.90;99.90
3713;DHT22;1872;51.406;6.856;2023-04-03T05:47:30;1.90;99.90
3713;DHT22;1872;51.406;6.856;2023-04-03T05:49:57;1.90;99.90
3713;DHT22;1872;51.406;6.856;2023-04-03T05:52:26;1.90;99.90
3713;DHT22;1872;51.406;6.856;2023-04-03T05:54:53;2.00;99.90
3713;DHT22;1872;51.406;6.856;2023-04-03T05:57:19;2.00;99.90
3713;DHT22;1872;51.406;6.856;2023-04-03T05:59:46;2.00;99.90
3713;DHT22;1872;51.406;6.856;2023-04-03T06:02:17;2.00;99.90
3713;DHT22;1872;51.406;6.856;2023-04-03T06:04:44;2.00;99.90
3713;DHT22;1872;51.406;6.856;2023-04-03T06:07:18;2.10;99.90
3713;DHT22;1872;51.406;6.856;2023-04-03T06:09:46;2.10;99.90
3713;DHT22;1872;51.406;6.856;2023-04-03T06:12:12;2.10;99.90
3713;DHT22;1872;51.406;6.856;2023-04-03T06:14:38;2.20;99.90
3713;DHT22;1872;51.406;6.856;2023-04-03T06:17:04;2.20;99.90
3713;DHT22;1872;51.406;6.856;2023-04-03T06:19:32;2.30;99.90
3713;DHT22;1872;51.406;6.856;2023-04-03T06:21:58;2.30;99.90
3713;DHT22;1872;51.406;6.856;2023-04-03T06:24:24;2.30;99.90
3713;DHT22;1872;51.406;6.856;2023-04-03T06:26:51;2.30;99.90
3713;DHT22;1872;51.406;6.856;2023-04-03T06:29:20;2.40;99.90
3713;DHT22;1872;51.406;6.856;2023-04-03T06:31:46;2.50;99.90
3713;DHT22;1872;51.406;6.856;2023-04-03T06:34:13;2.60;99.90
3713;DHT22;1872;51.406;6.856;2023-04-03T06:36:39;2.90;99.90
3713;DHT22;1872;51.406;6.856;2023-04-03T06:39:05;3.40;99.90
3713;DHT22;1872;51.406;6.856;2023-04-03T06:41:33;3.90;99.90
3713;DHT22;1872;51.406;6.856;2023-04-03T06:43:59;4.30;99.90
3713;DHT22;1872;51.406;6.856;2023-04-03T06:46:26;4.80;99.90
3713;DHT22;1872;51.406;6.856;2023-04-03T06:48:52;5.40;99.90
3713;DHT22;1872;51.406;6.856;2023-04-03T06:51:24;5.90;99.90
3713;DHT22;1872;51.406;6.856;2023-04-03T06:53:51;6.40;99.90
3713;DHT22;1872;51.406;6.856;2023-04-03T06:56:18;6.60;99.90
3713;DHT22;1872;51.406;6.856;2023-04-03T06:58:44;6.80;99.90
3713;DHT22;1872;51.406;6.856;2023-04-03T07:01:11;6.90;99.90
3713;DHT22;1872;51.406;6.856;2023-04-03T07:03:38;7.10;99.90
3713;DHT22;1872;51.406;6.856;2023-04-03T07:06:09;7.10;99.90
3713;DHT22;1872;51.406;6.856;2023-04-03T07:08:35;7.00;99.90
3713;DHT22;1872;51.406;6.856;2023-04-03T07:11:02;7.20;99.90
3713;DHT22;1872;51.406;6.856;2023-04-03T07:13:28;7.40;99.90
3713;DHT22;1872;51.406;6.856;2023-04-03T07:15:54;7.60;99.90
3713;DHT22;1872;51.406;6.856;2023-04-03T07:18:21;7.50;99.90
3713;DHT22;1872;51.406;6.856;2023-04-03T07:20:47;7.40;99.90
3713;DHT22;1872;51.406;6.856;2023-04-03T07:23:12;7.40;99.90
3713;DHT22;1872;51.406;6.856;2023-04-03T07:25:46;7.50;99.90
3713;DHT22;1872;51.406;6.856;2023-04-03T07:28:13;7.80;99.90
3713;DHT22;1872;51.406;6.856;2023-04-03T07:30:43;7.80;99.90
3713;DHT22;1872;51.406;6.856;2023-04-03T07:33:09;7.80;99.90
3713;DHT22;1872;51.406;6.856;2023-04-03T07:35:35;7.70;99.90
3713;DHT22;1872;51.406;6.856;2023-04-03T07:38:01;7.70;99.90
3713;DHT22;1872;51.406;6.856;2023-04-03T07:40:26;7.80;99.90
3713;DHT22;1872;51.406;6.856;2023-04-03T07:42:52;7.90;99.90
3713;DHT22;1872;51.406;6.856;2023-04-03T07:45:18;8.00;99.90
3713;DHT22;1872;51.406;6.856;2023-04-03T07:47:44;8.20;99.90
3713;DHT22;1872;51.406;6.856;2023-04-03T07:50:10;8.30;99.90
3713;DHT22;1872;51.406;6.856;2023-04-03T07:52:36;8.60;99.90
3713;DHT22;1872;51.406;6.856;2023-04-03T07:55:09;8.70;99.90
3713;DHT22;1872;51.406;6.856;2023-04-03T07:57:35;8.70;99.90
3713;DHT22;1872;51.406;6.856;2023-04-03T08:00:03;8.70;99.90
3713;DHT22;1872;51.406;6.856;2023-04-03T08:02:30;8.70;99.90
3713;DHT22;1872;51.406;6.856;2023-04-03T08:04:59;9.00;99.90
3713;DHT22;1872;51.406;6.856;2023-04-03T08:07:25;9.00;99.90
3713;DHT22;1872;51.406;6.856;2023-04-03T08:09:51;9.00;99.90
3713;DHT22;1872;51.406;6.856;2023-04-03T08:12:17;9.10;99.90
3713;DHT22;1872;51.406;6.856;2023-04-03T08:14:42;9.20;99.90
3713;DHT22;1872;51.406;6.856;2023-04-03T08:17:09;9.30;99.90
3713;DHT22;1872;51.406;6.856;2023-04-03T08:19:38;9.50;99.90
3713;DHT22;1872;51.406;6.856;2023-04-03T08:22:04;9.50;99.90
3713;DHT22;1872;51.406;6.856;2023-04-03T08:24:32;9.50;99.90
3713;DHT22;1872;51.406;6.856;2023-04-03T08:26:58;9.70;99.90
3713;DHT22;1872;51.406;6.856;2023-04-03T08:29:24;9.80;99.90
3713;DHT22;1872;51.406;6.856;2023-04-03T08:31:51;9.90;99.90
3713;DHT22;1872;51.406;6.856;2023-04-03T08:34:17;10.00;99.90
3713;DHT22;1872;51.406;6.856;2023-04-03T08:36:43;10.10;99.90
3713;DHT22;1872;51.406;6.856;2023-04-03T08:39:09;9.90;99.90
3713;DHT22;1872;51.406;6.856;2023-04-03T08:41:37;9.80;99.90
3713;DHT22;1872;51.406;6.856;2023-04-03T08:49:33;9.60;99.90
3713;DHT22;1872;51.406;6.856;2023-04-03T08:52:04;9.30;99.90
3713;DHT22;1872;51.406;6.856;2023-04-03T08:54:53;9.00;99.90
3713;DHT22;1872;51.406;6.856;2023-04-03T09:00:24;8.90;99.90
3713;DHT22;1872;51.406;6.856;2023-04-03T09:02:52;8.70;99.90
3713;DHT22;1872;51.406;6.856;2023-04-03T09:05:20;8.70;99.90
3713;DHT22;1872;51.406;6.856;2023-04-03T09:07:56;8.60;99.90
3713;DHT22;1872;51.406;6.856;2023-04-03T09:10:48;8.60;99.90
3713;DHT22;1872;51.406;6.856;2023-04-03T09:13:28;8.50;99.90
3713;DHT22;1872;51.406;6.856;2023-04-03T09:15:56;8.20;99.80
3713;DHT22;1872;51.406;6.856;2023-04-03T09:18:35;8.10;99.40
3713;DHT22;1872;51.406;6.856;2023-04-03T09:21:47;7.90;98.60
3713;DHT22;1872;51.406;6.856;2023-04-03T09:24:14;7.60;97.40
3713;DHT22;1872;51.406;6.856;2023-04-03T09:26:54;7.40;98.10
3713;DHT22;1872;51.406;6.856;2023-04-03T09:29:23;7.50;98.20
3713;DHT22;1872;51.406;6.856;2023-04-03T09:31:55;7.50;98.40
3713;DHT22;1872;51.406;6.856;2023-04-03T09:34:33;7.60;97.80
3713;DHT22;1872;51.406;6.856;2023-04-03T09:37:02;7.50;96.70
3713;DHT22;1872;51.406;6.856;2023-04-03T09:39:32;7.40;97.00
3713;DHT22;1872;51.406;6.856;2023-04-03T09:42:26;7.40;97.10
3713;DHT22;1872;51.406;6.856;2023-04-03T09:45:03;7.50;96.60
3713;DHT22;1872;51.406;6.856;2023-04-03T09:47:34;7.40;96.10
3713;DHT22;1872;51.406;6.856;2023-04-03T09:50:19;7.40;96.00
3713;DHT22;1872;51.406;6.856;2023-04-03T09:52:47;7.40;95.10
3713;DHT22;1872;51.406;6.856;2023-04-03T09:55:16;7.30;95.30
3713;DHT22;1872;51.406;6.856;2023-04-03T09:57:43;7.20;95.00
3713;DHT22;1872;51.406;6.856;2023-04-03T10:00:23;7.20;94.60
3713;DHT22;1872;51.406;6.856;2023-04-03T10:02:55;7.20;94.40
3713;DHT22;1872;51.406;6.856;2023-04-03T10:05:39;7.30;94.40
3713;DHT22;1872;51.406;6.856;2023-04-03T10:10:43;7.20;93.20
3713;DHT22;1872;51.406;6.856;2023-04-03T10:13:14;7.10;93.20
3713;DHT22;1872;51.406;6.856;2023-04-03T10:15:43;7.20;93.20
3713;DHT22;1872;51.406;6.856;2023-04-03T10:27:55;7.10;92.60
3713;DHT22;1872;51.406;6.856;2023-04-03T10:35:27;7.20;93.00
3713;DHT22;1872;51.406;6.856;2023-04-03T10:40:57;7.20;92.80
3713;DHT22;1872;51.406;6.856;2023-04-03T10:46:13;7.20;92.30
3713;DHT22;1872;51.406;6.856;2023-04-03T10:54:25;7.20;92.50
3713;DHT22;1872;51.406;6.856;2023-04-03T10:57:06;7.30;92.80
3713;DHT22;1872;51.406;6.856;2023-04-03T10:59:41;7.30;93.00
3713;DHT22;1872;51.406;6.856;2023-04-03T11:02:23;7.40;92.30
3713;DHT22;1872;51.406;6.856;2023-04-03T11:05:25;7.40;92.50
3713;DHT22;1872;51.406;6.856;2023-04-03T11:07:53;7.40;92.80
3713;DHT22;1872;51.406;6.856;2023-04-03T11:10:42;7.40;92.80
3713;DHT22;1872;51.406;6.856;2023-04-03T11:13:31;7.40;92.30
3713;DHT22;1872;51.406;6.856;2023-04-03T11:15:58;7.30;92.00
3713;DHT22;1872;51.406;6.856;2023-04-03T11:21:22;7.30;92.50
3713;DHT22;1872;51.406;6.856;2023-04-03T11:23:51;7.40;92.50
3713;DHT22;1872;51.406;6.856;2023-04-03T11:26:17;7.40;92.60
3713;DHT22;1872;51.406;6.856;2023-04-03T11:28:44;7.50;92.80
3713;DHT22;1872;51.406;6.856;2023-04-03T11:31:22;7.50;92.80
3713;DHT22;1872;51.406;6.856;2023-04-03T11:36:56;7.50;92.00
3713;DHT22;1872;51.406;6.856;2023-04-03T11:39:34;7.40;91.90
3713;DHT22;1872;51.406;6.856;2023-04-03T11:42:16;7.40;92.30
3713;DHT22;1872;51.406;6.856;2023-04-03T11:44:43;7.50;92.50
3713;DHT22;1872;51.406;6.856;2023-04-03T11:47:11;7.60;92.60
3713;DHT22;1872;51.406;6.856;2023-04-03T11:49:58;7.60;92.70
3713;DHT22;1872;51.406;6.856;2023-04-03T12:08:46;7.70;90.40
3713;DHT22;1872;51.406;6.856;2023-04-03T12:22:14;7.80;91.10
3713;DHT22;1872;51.406;6.856;2023-04-03T12:24:43;7.80;90.90
3713;DHT22;1872;51.406;6.856;2023-04-03T12:27:30;7.80;90.60
3713;DHT22;1872;51.406;6.856;2023-04-03T12:32:48;7.80;89.40
3713;DHT22;1872;51.406;6.856;2023-04-03T12:35:34;7.70;87.70
3713;DHT22;1872;51.406;6.856;2023-04-03T12:43:42;7.70;88.40
3713;DHT22;1872;51.406;6.856;2023-04-03T12:48:47;7.70;88.80
3713;DHT22;1872;51.406;6.856;2023-04-03T12:51:42;7.80;88.90
3713;DHT22;1872;51.406;6.856;2023-04-03T12:54:30;7.80;87.10
3713;DHT22;1872;51.406;6.856;2023-04-03T12:57:11;7.80;87.80
3713;DHT22;1872;51.406;6.856;2023-04-03T12:59:36;7.80;87.50
3713;DHT22;1872;51.406;6.856;2023-04-03T13:02:15;7.80;87.60
3713;DHT22;1872;51.406;6.856;2023-04-03T13:04:43;7.80;87.70
3713;DHT22;1872;51.406;6.856;2023-04-03T13:07:32;7.80;87.50
3713;DHT22;1872;51.406;6.856;2023-04-03T13:10:20;7.80;85.60
3713;DHT22;1872;51.406;6.856;2023-04-03T13:12:54;7.80;85.60
3713;DHT22;1872;51.406;6.856;2023-04-03T13:15:43;7.80;86.80
3713;DHT22;1872;51.406;6.856;2023-04-03T13:18:45;7.90;86.60
3713;DHT22;1872;51.406;6.856;2023-04-03T13:21:15;7.90;86.80
3713;DHT22;1872;51.406;6.856;2023-04-03T13:23:46;7.90;86.50
3713;DHT22;1872;51.406;6.856;2023-04-03T13:26:12;7.90;86.20
3713;DHT22;1872;51.406;6.856;2023-04-03T13:28:42;7.90;86.20
3713;DHT22;1872;51.406;6.856;2023-04-03T13:33:54;8.00;85.20
3713;DHT22;1872;51.406;6.856;2023-04-03T13:36:23;7.90;85.50
3713;DHT22;1872;51.406;6.856;2023-04-03T13:41:34;7.90;84.20
3713;DHT22;1872;51.406;6.856;2023-04-03T13:46:49;7.90;83.80
3713;DHT22;1872;51.406;6.856;2023-04-03T13:51:51;7.90;82.40
3713;DHT22;1872;51.406;6.856;2023-04-03T13:54:38;7.80;82.40
3713;DHT22;1872;51.406;6.856;2023-04-03T13:57:14;7.70;82.00
3713;DHT22;1872;51.406;6.856;2023-04-03T13:59:40;7.80;82.60
3713;DHT22;1872;51.406;6.856;2023-04-03T14:07:11;8.00;84.90
3713;DHT22;1872;51.406;6.856;2023-04-03T14:09:37;8.00;85.00
3713;DHT22;1872;51.406;6.856;2023-04-03T14:12:07;8.10;84.20
3713;DHT22;1872;51.406;6.856;2023-04-03T14:14:35;8.10;84.10
3713;DHT22;1872;51.406;6.856;2023-04-03T14:17:03;8.10;83.40
3713;DHT22;1872;51.406;6.856;2023-04-03T14:19:36;8.10;84.30
3713;DHT22;1872;51.406;6.856;2023-04-03T14:22:16;8.30;85.40
3713;DHT22;1872;51.406;6.856;2023-04-03T14:24:42;8.30;82.70
3713;DHT22;1872;51.406;6.856;2023-04-03T14:27:35;8.20;83.30
3713;DHT22;1872;51.406;6.856;2023-04-03T14:30:04;8.20;83.10
3713;DHT22;1872;51.406;6.856;2023-04-03T14:32:30;8.20;83.40
3713;DHT22;1872;51.406;6.856;2023-04-03T14:34:56;8.10;82.10
3713;DHT22;1872;51.406;6.856;2023-04-03T14:37:28;8.10;82.70
3713;DHT22;1872;51.406;6.856;2023-04-03T14:39:55;8.10;83.20
3713;DHT22;1872;51.406;6.856;2023-04-03T14:42:27;8.00;83.10
3713;DHT22;1872;51.406;6.856;2023-04-03T14:44:53;8.00;82.70
3713;DHT22;1872;51.406;6.856;2023-04-03T14:47:22;8.10;83.60
3713;DHT22;1872;51.406;6.856;2023-04-03T14:49:48;8.10;83.70
3713;DHT22;1872;51.406;6.856;2023-04-03T14:52:23;8.20;83.30
3713;DHT22;1872;51.406;6.856;2023-04-03T14:54:52;8.10;83.30
3713;DHT22;1872;51.406;6.856;2023-04-03T14:57:27;8.10;83.20
3713;DHT22;1872;51.406;6.856;2023-04-03T14:59:53;8.10;83.30
3713;DHT22;1872;51.406;6.856;2023-04-03T15:02:26;8.10;83.70
3713;DHT22;1872;51.406;6.856;2023-04-03T15:04:56;8.10;83.10
3713;DHT22;1872;51.406;6.856;2023-04-03T15:07:23;8.20;83.50
3713;DHT22;1872;51.406;6.856;2023-04-03T15:09:50;8.20;83.80
3713;DHT22;1872;51.406;6.856;2023-04-03T15:12:16;8.20;83.40
3713;DHT22;1872;51.406;6.856;2023-04-03T15:14:41;8.10;83.20
3713;DHT22;1872;51.406;6.856;2023-04-03T15:17:13;8.10;83.50
3713;DHT22;1872;51.406;6.856;2023-04-03T15:19:40;8.10;83.70
3713;DHT22;1872;51.406;6.856;2023-04-03T15:22:06;8.10;83.80
3713;DHT22;1872;51.406;6.856;2023-04-03T15:24:32;8.20;84.20
3713;DHT22;1872;51.406;6.856;2023-04-03T15:26:58;8.10;84.00
3713;DHT22;1872;51.406;6.856;2023-04-03T15:29:28;8.20;84.10
3713;DHT22;1872;51.406;6.856;2023-04-03T15:31:53;8.20;84.10
3713;DHT22;1872;51.406;6.856;2023-04-03T15:34:19;8.20;84.00
3713;DHT22;1872;51.406;6.856;2023-04-03T15:36:46;8.20;83.90
3713;DHT22;1872;51.406;6.856;2023-04-03T15:39:14;8.10;83.30
3713;DHT22;1872;51.406;6.856;2023-04-03T15:41:41;8.10;83.40
3713;DHT22;1872;51.406;6.856;2023-04-03T15:44:09;8.10;83.70
3713;DHT22;1872;51.406;6.856;2023-04-03T15:46:35;8.10;83.70
3713;DHT22;1872;51.406;6.856;2023-04-03T15:49:01;8.00;83.90
3713;DHT22;1872;51.406;6.856;2023-04-03T15:51:26;8.00;83.90
3713;DHT22;1872;51.406;6.856;2023-04-03T15:53:52;8.00;84.10
3713;DHT22;1872;51.406;6.856;2023-04-03T15:56:18;8.00;83.80
3713;DHT22;1872;51.406;6.856;2023-04-03T15:58:43;8.00;83.70
3713;DHT22;1872;51.406;6.856;2023-04-03T16:01:10;8.00;84.00
3713;DHT22;1872;51.406;6.856;2023-04-03T16:03:36;8.00;83.80
3713;DHT22;1872;51.406;6.856;2023-04-03T16:06:04;7.90;83.70
3713;DHT22;1872;51.406;6.856;2023-04-03T16:08:32;7.90;83.50
3713;DHT22;1872;51.406;6.856;2023-04-03T16:10:58;7.90;82.80
3713;DHT22;1872;51.406;6.856;2023-04-03T16:13:31;7.80;83.20
3713;DHT22;1872;51.406;6.856;2023-04-03T16:15:58;7.80;83.50
3713;DHT22;1872;51.406;6.856;2023-04-03T16:18:24;7.90;83.80
3713;DHT22;1872;51.406;6.856;2023-04-03T16:20:49;7.80;83.70
3713;DHT22;1872;51.406;6.856;2023-04-03T16:23:15;7.90;84.10
3713;DHT22;1872;51.406;6.856;2023-04-03T16:25:41;7.90;84.20
3713;DHT22;1872;51.406;6.856;2023-04-03T16:28:11;7.90;83.90
3713;DHT22;1872;51.406;6.856;2023-04-03T16:30:37;7.90;84.20
3713;DHT22;1872;51.406;6.856;2023-04-03T16:33:04;7.90;84.10
3713;DHT22;1872;51.406;6.856;2023-04-03T16:35:30;7.80;84.20
3713;DHT22;1872;51.406;6.856;2023-04-03T16:37:55;7.80;83.40
3713;DHT22;1872;51.406;6.856;2023-04-03T16:40:21;7.80;83.80
3713;DHT22;1872;51.406;6.856;2023-04-03T16:42:47;7.80;83.80
3713;DHT22;1872;51.406;6.856;2023-04-03T16:45:12;7.70;83.60
3713;DHT22;1872;51.406;6.856;2023-04-03T16:47:38;7.70;83.20
3713;DHT22;1872;51.406;6.856;2023-04-03T16:50:04;7.60;83.10
3713;DHT22;1872;51.406;6.856;2023-04-03T16:52:30;7.60;83.60
3713;DHT22;1872;51.406;6.856;2023-04-03T16:54:56;7.60;83.80
3713;DHT22;1872;51.406;6.856;2023-04-03T16:57:24;7.60;83.60
3713;DHT22;1872;51.406;6.856;2023-04-03T16:59:50;7.50;83.40
3713;DHT22;1872;51.406;6.856;2023-04-03T17:02:17;7.50;83.50
3713;DHT22;1872;51.406;6.856;2023-04-03T17:04:42;7.50;83.20
3713;DHT22;1872;51.406;6.856;2023-04-03T17:07:08;7.50;82.90
3713;DHT22;1872;51.406;6.856;2023-04-03T17:09:34;7.40;83.40
3713;DHT22;1872;51.406;6.856;2023-04-03T17:12:00;7.40;83.50
3713;DHT22;1872;51.406;6.856;2023-04-03T17:14:25;7.40;83.50
3713;DHT22;1872;51.406;6.856;2023-04-03T17:16:51;7.30;83.20
3713;DHT22;1872;51.406;6.856;2023-04-03T17:19:17;7.30;83.60
3713;DHT22;1872;51.406;6.856;2023-04-03T17:21:44;7.30;83.50
3713;DHT22;1872;51.406;6.856;2023-04-03T17:24:11;7.30;83.50
3713;DHT22;1872;51.406;6.856;2023-04-03T17:26:40;7.20;83.70
3713;DHT22;1872;51.406;6.856;2023-04-03T17:29:06;7.20;83.70
3713;DHT22;1872;51.406;6.856;2023-04-03T17:31:32;7.20;83.80
3713;DHT22;1872;51.406;6.856;2023-04-03T17:33:58;7.20;83.70
3713;DHT22;1872;51.406;6.856;2023-04-03T17:36:30;7.10;83.70
3713;DHT22;1872;51.406;6.856;2023-04-03T17:38:56;7.10;83.90
3713;DHT22;1872;51.406;6.856;2023-04-03T17:41:30;7.10;83.70
3713;DHT22;1872;51.406;6.856;2023-04-03T17:44:03;7.00;83.70
3713;DHT22;1872;51.406;6.856;2023-04-03T17:46:30;7.00;83.90
3713;DHT22;1872;51.406;6.856;2023-04-03T17:48:56;7.00;84.50
3713;DHT22;1872;51.406;6.856;2023-04-03T17:51:25;6.90;83.70
3713;DHT22;1872;51.406;6.856;2023-04-03T17:53:51;6.90;83.80
3713;DHT22;1872;51.406;6.856;2023-04-03T17:56:22;6.90;83.90
3713;DHT22;1872;51.406;6.856;2023-04-03T17:58:49;6.80;83.80
3713;DHT22;1872;51.406;6.856;2023-04-03T18:01:21;6.70;83.60
3713;DHT22;1872;51.406;6.856;2023-04-03T18:03:50;6.70;83.70
3713;DHT22;1872;51.406;6.856;2023-04-03T18:06:18;6.70;83.70
3713;DHT22;1872;51.406;6.856;2023-04-03T18:08:47;6.70;83.80
3713;DHT22;1872;51.406;6.856;2023-04-03T18:11:14;6.70;83.90